createdAt,value
2017-09-26T00:02:09.043Z,13.20
2017-09-26T00:04:37.858Z,9.68
2017-09-26T00:07:05.521Z,8.88
2017-09-26T00:09:36.396Z,9.90
2017-09-26T00:12:04.011Z,8.88
2017-09-26T00:14:31.546Z,13.10
2017-09-26T00:16:59.034Z,10.27
2017-09-26T00:19:27.554Z,9.38
2017-09-26T00:21:55.078Z,15.30
2017-09-26T00:24:22.575Z,15.68
2017-09-26T00:26:50.999Z,14.93
2017-09-26T00:29:18.487Z,14.10
2017-09-26T00:31:46.554Z,14.63
2017-09-26T00:34:14.078Z,15.40
2017-09-26T00:36:41.571Z,14.52
2017-09-26T00:39:09.091Z,14.68
2017-09-26T00:41:36.586Z,15.73
2017-09-26T00:44:07.018Z,15.15
2017-09-26T00:46:34.531Z,16.95
2017-09-26T00:49:02.025Z,14.98
2017-09-26T00:51:29.529Z,16.50
2017-09-26T00:53:57.818Z,15.30
2017-09-26T00:56:26.250Z,14.65
2017-09-26T00:58:53.774Z,16.12
2017-09-26T01:01:21.667Z,14.95
2017-09-26T01:03:50.622Z,15.63
2017-09-26T01:06:18.740Z,15.10
2017-09-26T01:08:46.254Z,16.17
2017-09-26T01:11:14.154Z,16.50
2017-09-26T01:13:41.654Z,14.85
2017-09-26T01:16:09.153Z,15.15
2017-09-26T01:18:36.646Z,15.15
2017-09-26T01:21:05.081Z,16.48
2017-09-26T01:23:32.986Z,16.50
2017-09-26T01:26:00.465Z,16.33
2017-09-26T01:28:27.984Z,17.45
2017-09-26T01:30:55.475Z,16.12
2017-09-26T01:33:22.977Z,15.90
2017-09-26T01:35:50.890Z,17.02
2017-09-26T01:38:18.392Z,16.85
2017-09-26T01:40:58.154Z,17.30
2017-09-26T01:43:25.665Z,16.30
2017-09-26T01:45:53.155Z,16.52
2017-09-26T01:48:21.054Z,17.17
2017-09-26T01:50:51.571Z,17.58
2017-09-26T01:53:19.102Z,18.65
2017-09-26T01:55:46.607Z,16.92
2017-09-26T01:58:14.126Z,16.75
2017-09-26T02:00:42.018Z,18.27
2017-09-26T02:03:09.522Z,17.45
2017-09-26T02:05:37.010Z,17.62
2017-09-26T02:08:04.913Z,17.48
2017-09-26T02:10:32.402Z,18.37
2017-09-26T02:12:59.903Z,16.45
2017-09-26T02:15:27.426Z,17.92
2017-09-26T02:17:54.938Z,17.08
2017-09-26T02:20:22.426Z,17.83
2017-09-26T02:22:51.881Z,17.73
2017-09-26T02:25:19.366Z,17.37
2017-09-26T02:27:46.874Z,17.62
2017-09-26T02:30:14.766Z,18.02
2017-09-26T02:32:42.270Z,19.23
2017-09-26T02:35:09.810Z,18.60
2017-09-26T02:37:37.321Z,18.10
2017-09-26T02:40:05.206Z,19.77
2017-09-26T02:42:32.718Z,19.08
2017-09-26T02:45:00.233Z,20.20
2017-09-26T02:47:27.817Z,19.57
2017-09-26T02:49:55.326Z,20.35
2017-09-26T02:52:23.206Z,19.48
2017-09-26T02:54:50.714Z,20.45
2017-09-26T02:57:18.218Z,21.90
2017-09-26T02:59:45.706Z,20.23
2017-09-26T03:02:13.215Z,19.87
2017-09-26T03:04:41.116Z,19.77
2017-09-26T03:07:08.690Z,20.02
2017-09-26T03:09:36.211Z,21.10
2017-09-26T03:12:04.747Z,21.37
2017-09-26T03:14:32.282Z,21.23
2017-09-26T03:17:00.706Z,23.62
2017-09-26T03:19:28.226Z,22.08
2017-09-26T03:21:55.725Z,21.73
2017-09-26T03:24:24.566Z,20.83
2017-09-26T03:26:52.087Z,20.90
2017-09-26T03:29:19.969Z,21.55
2017-09-26T03:31:47.493Z,21.58
2017-09-26T03:34:17.374Z,21.10
2017-09-26T03:36:44.874Z,21.27
2017-09-26T03:39:12.758Z,21.35
2017-09-26T03:41:40.258Z,22.00
2017-09-26T03:44:07.774Z,23.58
2017-09-26T03:46:35.270Z,24.65
2017-09-26T03:49:02.778Z,22.13
2017-09-26T03:51:30.273Z,22.62
2017-09-26T03:53:57.801Z,23.73
2017-09-26T03:56:25.318Z,25.23
2017-09-26T03:58:52.810Z,22.70
2017-09-26T04:01:20.726Z,25.05
2017-09-26T04:03:49.158Z,26.40
2017-09-26T04:06:16.646Z,24.40
2017-09-26T04:08:44.181Z,25.37
2017-09-26T04:11:12.630Z,25.35
2017-09-26T04:13:40.134Z,26.60
2017-09-26T04:16:07.639Z,24.75
2017-09-26T04:18:35.134Z,22.95
2017-09-26T04:21:02.666Z,22.70
2017-09-26T04:23:30.567Z,23.02
2017-09-26T04:26:00.078Z,23.27
2017-09-26T04:28:27.610Z,23.20
2017-09-26T04:30:55.105Z,22.37
2017-09-26T04:33:22.586Z,21.42
2017-09-26T04:35:50.106Z,21.98
2017-09-26T04:38:17.598Z,22.02
2017-09-26T04:40:45.122Z,22.83
2017-09-26T04:43:12.623Z,22.92
2017-09-26T04:45:42.068Z,22.98
2017-09-26T04:48:09.574Z,23.40
2017-09-26T04:50:37.070Z,22.85
2017-09-26T04:53:04.581Z,21.65
2017-09-26T04:55:32.086Z,22.60
2017-09-26T04:57:59.595Z,22.95
2017-09-26T05:00:27.123Z,23.23
2017-09-26T05:02:55.483Z,22.37
2017-09-26T05:05:23.998Z,24.25
2017-09-26T05:07:51.512Z,23.62
2017-09-26T05:10:19.024Z,22.40
2017-09-26T05:12:48.785Z,24.30
2017-09-26T05:15:18.298Z,25.17
2017-09-26T05:17:46.490Z,24.27
2017-09-26T05:20:14.874Z,24.87
2017-09-26T05:22:42.366Z,21.87
2017-09-26T05:25:09.878Z,22.62
2017-09-26T05:27:37.393Z,25.98
2017-09-26T05:30:05.787Z,30.55
2017-09-26T05:32:33.684Z,26.55
2017-09-26T05:35:01.198Z,26.02
2017-09-26T05:37:28.712Z,22.77
2017-09-26T05:39:56.241Z,19.92
2017-09-26T05:42:23.733Z,25.42
2017-09-26T05:44:51.242Z,21.95
2017-09-26T05:47:20.149Z,22.50
2017-09-26T05:49:48.617Z,22.17
2017-09-26T05:52:16.114Z,23.45
2017-09-26T05:54:43.621Z,22.23
2017-09-26T05:57:11.525Z,24.00
2017-09-26T05:59:39.017Z,29.48
2017-09-26T06:02:06.519Z,23.85
2017-09-26T06:04:34.013Z,24.30
2017-09-26T06:07:01.528Z,22.77
2017-09-26T06:09:29.421Z,26.92
2017-09-26T06:11:56.930Z,32.05
2017-09-26T06:14:24.837Z,27.23
2017-09-26T06:16:52.353Z,27.98
2017-09-26T06:19:21.145Z,31.12
2017-09-26T06:21:49.062Z,34.88
2017-09-26T06:24:16.576Z,30.50
2017-09-26T06:26:44.505Z,29.73
2017-09-26T06:29:12.010Z,27.55
2017-09-26T06:31:40.853Z,29.95
2017-09-26T06:34:08.371Z,22.15
2017-09-26T06:36:35.954Z,22.65
2017-09-26T06:39:03.442Z,22.98
2017-09-26T06:41:30.937Z,24.02
2017-09-26T06:43:58.426Z,24.33
2017-09-26T06:46:25.930Z,24.00
2017-09-26T06:48:54.326Z,22.98
2017-09-26T06:51:21.874Z,22.42
2017-09-26T06:53:49.792Z,21.05
2017-09-26T06:56:18.297Z,24.95
2017-09-26T06:58:45.802Z,24.55
2017-09-26T07:01:13.318Z,22.70
2017-09-26T07:03:40.806Z,22.62
2017-09-26T07:06:10.168Z,22.50
2017-09-26T07:08:37.657Z,21.83
2017-09-26T07:11:05.534Z,21.55
2017-09-26T07:13:33.057Z,23.42
2017-09-26T07:16:02.522Z,22.85
2017-09-26T07:18:30.039Z,23.05
2017-09-26T07:20:59.905Z,22.25
2017-09-26T07:23:27.453Z,22.50
2017-09-26T07:25:54.970Z,24.95
2017-09-26T07:28:22.854Z,20.50
2017-09-26T07:30:50.448Z,22.80
2017-09-26T07:33:18.052Z,21.62
2017-09-26T07:35:45.689Z,21.95
2017-09-26T07:38:15.597Z,23.62
2017-09-26T07:40:43.338Z,23.25
2017-09-26T07:43:11.023Z,22.80
2017-09-26T07:45:39.471Z,22.52
2017-09-26T07:48:07.090Z,23.02
2017-09-26T07:50:35.785Z,22.40
2017-09-26T07:53:03.302Z,21.60
2017-09-26T07:55:30.794Z,22.50
2017-09-26T07:57:58.698Z,20.77
2017-09-26T08:00:26.555Z,23.33
2017-09-26T08:02:54.046Z,22.27
2017-09-26T08:05:21.766Z,23.48
2017-09-26T08:07:49.522Z,23.30
2017-09-26T08:10:17.029Z,22.13
2017-09-26T08:12:44.514Z,22.75
2017-09-26T08:15:12.436Z,24.12
2017-09-26T08:17:39.957Z,25.60
2017-09-26T08:20:08.391Z,26.42
2017-09-26T08:22:35.886Z,23.02
2017-09-26T08:25:04.623Z,22.25
2017-09-26T08:27:33.066Z,23.60
2017-09-26T08:30:00.585Z,22.90
2017-09-26T08:32:28.438Z,22.80
2017-09-26T08:34:55.946Z,23.17
2017-09-26T08:37:23.442Z,20.95
2017-09-26T08:39:50.964Z,22.35
2017-09-26T08:42:18.689Z,21.95
2017-09-26T08:44:46.195Z,21.33
2017-09-26T08:47:13.699Z,21.00
2017-09-26T08:49:41.218Z,20.25
2017-09-26T08:52:09.710Z,20.30
2017-09-26T08:54:40.163Z,23.80
2017-09-26T08:57:07.695Z,22.40
2017-09-26T08:59:35.224Z,21.25
2017-09-26T09:02:03.694Z,21.25
2017-09-26T09:04:31.204Z,22.60
2017-09-26T09:06:58.719Z,21.58
2017-09-26T09:09:27.234Z,20.60
2017-09-26T09:11:54.734Z,22.17
2017-09-26T09:14:22.658Z,20.17
2017-09-26T09:16:50.162Z,22.77
2017-09-26T09:19:18.063Z,21.37
2017-09-26T09:21:45.584Z,22.33
2017-09-26T09:24:13.827Z,21.37
2017-09-26T09:26:41.362Z,20.93
2017-09-26T09:29:08.858Z,21.73
2017-09-26T09:31:36.346Z,21.83
2017-09-26T09:34:04.237Z,22.30
2017-09-26T09:36:31.755Z,19.20
2017-09-26T09:38:59.712Z,19.63
2017-09-26T09:41:27.284Z,20.17
2017-09-26T09:43:55.184Z,20.80
2017-09-26T09:46:24.676Z,20.50
2017-09-26T09:48:52.214Z,18.70
2017-09-26T09:51:20.098Z,19.17
2017-09-26T09:53:47.609Z,20.20
2017-09-26T09:56:16.057Z,18.90
2017-09-26T09:58:44.486Z,18.73
2017-09-26T10:01:11.979Z,19.07
2017-09-26T10:03:39.471Z,19.20
2017-09-26T10:06:08.184Z,17.00
2017-09-26T10:08:35.714Z,18.83
2017-09-26T10:11:03.202Z,19.17
2017-09-26T10:13:30.710Z,19.10
2017-09-26T10:15:58.198Z,18.20
2017-09-26T10:18:25.712Z,16.30
2017-09-26T10:20:53.242Z,16.73
2017-09-26T10:23:22.162Z,16.40
2017-09-26T10:25:50.025Z,16.03
2017-09-26T10:28:17.574Z,14.63
2017-09-26T10:30:45.539Z,13.70
2017-09-26T10:33:13.429Z,15.10
2017-09-26T10:35:40.937Z,14.67
2017-09-26T10:38:10.390Z,15.20
2017-09-26T10:40:37.878Z,14.40
2017-09-26T10:43:05.362Z,14.00
2017-09-26T10:45:34.091Z,15.20
2017-09-26T10:48:01.574Z,15.60
2017-09-26T10:50:29.091Z,13.57
2017-09-26T10:52:56.586Z,14.17
2017-09-26T10:55:24.098Z,13.03
2017-09-26T10:57:51.601Z,13.17
2017-09-26T11:00:19.101Z,14.77
2017-09-26T11:02:47.011Z,14.00
2017-09-26T11:05:14.536Z,14.10
2017-09-26T11:07:42.024Z,15.37
2017-09-26T11:10:09.525Z,15.50
2017-09-26T11:12:38.530Z,13.93
2017-09-26T11:15:06.096Z,13.80
2017-09-26T11:17:34.883Z,15.23
2017-09-26T11:20:02.377Z,14.20
2017-09-26T11:22:29.886Z,13.20
2017-09-26T11:24:57.757Z,14.07
2017-09-26T11:27:26.505Z,13.57
2017-09-26T11:29:54.006Z,13.90
2017-09-26T11:32:21.878Z,13.37
2017-09-26T11:34:49.989Z,13.13
2017-09-26T11:37:17.469Z,13.50
2017-09-26T11:39:44.967Z,11.93
2017-09-26T11:42:12.499Z,12.83
2017-09-26T11:44:39.985Z,13.13
2017-09-26T11:47:07.498Z,14.40
2017-09-26T11:49:35.012Z,13.07
2017-09-26T11:52:02.509Z,13.10
2017-09-26T11:54:30.435Z,12.80
2017-09-26T11:56:57.934Z,12.73
2017-09-26T11:59:25.439Z,13.20
2017-09-26T12:01:52.941Z,12.93
2017-09-26T12:04:20.794Z,12.90
2017-09-26T12:06:48.337Z,12.63
2017-09-26T12:09:16.527Z,12.10
2017-09-26T12:11:44.018Z,12.60
2017-09-26T12:14:11.531Z,13.27
2017-09-26T12:16:39.013Z,12.77
2017-09-26T12:19:11.232Z,13.47
2017-09-26T12:21:38.734Z,13.63
2017-09-26T12:24:07.127Z,13.00
2017-09-26T12:26:34.640Z,13.53
2017-09-26T12:29:03.321Z,14.30
2017-09-26T12:31:30.805Z,14.67
2017-09-26T12:33:58.391Z,14.10
2017-09-26T12:36:25.877Z,12.83
2017-09-26T12:38:53.752Z,12.80
2017-09-26T12:41:21.262Z,13.50
2017-09-26T12:43:48.762Z,13.80
2017-09-26T12:46:16.682Z,14.53
2017-09-26T12:48:45.233Z,14.30
2017-09-26T12:51:14.751Z,14.03
2017-09-26T12:53:42.261Z,14.17
2017-09-26T12:56:10.142Z,13.53
2017-09-26T12:58:37.637Z,14.23
2017-09-26T13:01:05.153Z,14.43
2017-09-26T13:03:33.100Z,14.80
2017-09-26T13:06:01.014Z,15.03
2017-09-26T13:08:28.523Z,13.97
2017-09-26T13:10:56.007Z,13.30
2017-09-26T13:13:23.587Z,13.43
2017-09-26T13:15:52.056Z,14.17
2017-09-26T13:18:20.510Z,14.10
2017-09-26T13:20:48.418Z,12.90
2017-09-26T13:23:16.327Z,13.87
2017-09-26T13:25:43.822Z,12.43
2017-09-26T13:28:13.314Z,14.27
2017-09-26T13:30:40.805Z,14.17
2017-09-26T13:33:08.306Z,12.40
2017-09-26T13:35:35.809Z,12.77
2017-09-26T13:38:03.320Z,14.50
2017-09-26T13:40:30.822Z,12.93
2017-09-26T13:42:58.337Z,15.13
2017-09-26T13:45:25.843Z,14.30
2017-09-26T13:47:53.352Z,14.70
2017-09-26T13:50:21.769Z,13.90
2017-09-26T13:52:49.282Z,13.73
2017-09-26T13:55:16.762Z,13.27
2017-09-26T13:57:44.678Z,13.47
2017-09-26T14:00:12.163Z,13.53
2017-09-26T14:02:39.646Z,13.70
2017-09-26T14:05:07.546Z,13.13
2017-09-26T14:07:35.938Z,13.77
2017-09-26T14:10:03.439Z,10.77
2017-09-26T14:12:31.338Z,12.60
2017-09-26T14:15:00.634Z,12.23
2017-09-26T14:17:28.148Z,12.00
2017-09-26T14:19:55.638Z,11.67
2017-09-26T14:22:23.123Z,11.50
2017-09-26T14:24:51.682Z,13.13
2017-09-26T14:27:19.254Z,12.90
2017-09-26T14:29:47.773Z,11.30
2017-09-26T14:32:15.259Z,11.50
2017-09-26T14:34:44.129Z,12.40
2017-09-26T14:37:11.680Z,11.57
2017-09-26T14:39:39.161Z,11.80
2017-09-26T14:42:07.074Z,11.87
2017-09-26T14:44:35.504Z,11.77
2017-09-26T14:47:03.412Z,12.20
2017-09-26T14:49:31.866Z,12.60
2017-09-26T14:51:59.350Z,11.07
2017-09-26T14:54:26.861Z,11.60
2017-09-26T14:56:54.806Z,10.60
2017-09-26T14:59:22.302Z,11.27
2017-09-26T15:01:50.201Z,9.73
2017-09-26T15:04:17.708Z,9.80
2017-09-26T15:06:45.202Z,11.40
2017-09-26T15:09:12.718Z,11.50
2017-09-26T15:11:40.245Z,10.87
2017-09-26T15:14:09.914Z,12.30
2017-09-26T15:16:37.413Z,11.80
2017-09-26T15:19:04.918Z,10.60
2017-09-26T15:21:34.983Z,11.40
2017-09-26T15:24:02.490Z,10.63
2017-09-26T15:26:30.365Z,12.10
2017-09-26T15:28:58.257Z,11.03
2017-09-26T15:31:25.778Z,11.73
2017-09-26T15:33:53.670Z,11.00
2017-09-26T15:36:21.174Z,11.20
2017-09-26T15:38:50.126Z,10.23
2017-09-26T15:41:17.634Z,9.93
2017-09-26T15:43:45.178Z,10.60
2017-09-26T15:46:12.734Z,12.83
2017-09-26T15:48:40.222Z,11.03
2017-09-26T15:51:08.104Z,9.73
2017-09-26T15:53:35.999Z,11.63
2017-09-26T15:56:04.445Z,10.40
2017-09-26T15:58:31.984Z,11.70
2017-09-26T16:00:59.890Z,11.27
2017-09-26T16:03:27.418Z,11.40
2017-09-26T16:05:55.407Z,10.23
2017-09-26T16:08:24.899Z,10.87
2017-09-26T16:10:52.415Z,10.83
2017-09-26T16:13:19.989Z,10.90
2017-09-26T16:15:47.559Z,10.43
2017-09-26T16:18:15.059Z,12.00
2017-09-26T16:20:43.567Z,10.03
2017-09-26T16:23:11.250Z,10.70
2017-09-26T16:25:39.463Z,12.50
2017-09-26T16:28:06.980Z,11.13
2017-09-26T16:30:35.791Z,12.00
2017-09-26T16:33:03.693Z,11.07
2017-09-26T16:35:31.242Z,10.50
2017-09-26T16:37:59.596Z,10.00
2017-09-26T16:40:27.562Z,10.60
2017-09-26T16:42:55.456Z,10.00
2017-09-26T16:45:22.970Z,10.20
2017-09-26T16:47:51.216Z,10.50
2017-09-26T16:50:19.527Z,10.60
2017-09-26T16:52:47.036Z,9.37
2017-09-26T16:55:14.523Z,9.80
2017-09-26T16:57:42.886Z,11.30
2017-09-26T17:00:10.415Z,10.73
2017-09-26T17:02:37.959Z,10.10
2017-09-26T17:05:05.845Z,11.40
2017-09-26T17:07:33.336Z,9.60
2017-09-26T17:10:01.770Z,10.90
2017-09-26T17:12:29.269Z,11.23
2017-09-26T17:14:56.774Z,11.77
2017-09-26T17:17:24.688Z,10.43
2017-09-26T17:19:52.175Z,11.70
2017-09-26T17:22:19.684Z,11.30
2017-09-26T17:24:47.278Z,11.87
2017-09-26T17:27:14.791Z,11.00
2017-09-26T17:29:42.416Z,12.10
2017-09-26T17:32:10.298Z,12.97
2017-09-26T17:34:38.200Z,15.40
2017-09-26T17:37:05.727Z,16.73
2017-09-26T17:39:33.859Z,16.30
2017-09-26T17:42:01.342Z,17.33
2017-09-26T17:44:28.861Z,13.80
2017-09-26T17:46:56.341Z,13.93
2017-09-26T17:49:23.843Z,20.70
2017-09-26T17:51:51.346Z,25.30
2017-09-26T17:54:18.845Z,38.87
2017-09-26T17:56:46.386Z,33.17
2017-09-26T17:59:14.276Z,26.47
2017-09-26T18:01:41.795Z,22.70
2017-09-26T18:04:09.338Z,20.20
2017-09-26T18:06:36.841Z,17.97
2017-09-26T18:09:04.332Z,17.67
2017-09-26T18:11:31.834Z,15.33
2017-09-26T18:13:59.717Z,17.93
2017-09-26T18:16:27.243Z,15.83
2017-09-26T18:18:54.754Z,15.93
2017-09-26T18:21:22.263Z,15.20
2017-09-26T18:23:49.752Z,16.40
2017-09-26T18:26:17.278Z,14.90
2017-09-26T18:28:44.772Z,14.53
2017-09-26T18:31:12.269Z,13.30
2017-09-26T18:33:39.806Z,14.13
2017-09-26T18:36:07.309Z,14.27
2017-09-26T18:38:34.794Z,12.83
2017-09-26T18:41:02.686Z,13.50
2017-09-26T18:43:30.163Z,13.30
2017-09-26T18:45:57.657Z,14.20
2017-09-26T18:48:25.559Z,14.30
2017-09-26T18:50:53.046Z,14.37
2017-09-26T18:53:20.564Z,14.40
2017-09-26T18:55:48.093Z,14.53
2017-09-26T18:58:17.539Z,12.97
2017-09-26T19:00:45.033Z,13.33
2017-09-26T19:03:13.478Z,12.80
2017-09-26T19:05:40.966Z,13.43
2017-09-26T19:08:09.425Z,14.00
2017-09-26T19:10:36.910Z,13.73
2017-09-26T19:13:04.410Z,14.97
2017-09-26T19:15:31.926Z,15.00
2017-09-26T19:17:59.419Z,12.83
2017-09-26T19:20:27.346Z,13.17
2017-09-26T19:22:54.875Z,14.00
2017-09-26T19:25:22.370Z,13.07
2017-09-26T19:27:49.884Z,13.07
2017-09-26T19:30:17.390Z,13.43
2017-09-26T19:32:44.875Z,13.87
2017-09-26T19:35:12.407Z,13.10
2017-09-26T19:37:39.939Z,13.93
2017-09-26T19:40:07.435Z,13.20
2017-09-26T19:42:35.366Z,12.50
2017-09-26T19:45:02.862Z,13.27
2017-09-26T19:47:30.762Z,12.93
2017-09-26T19:49:58.294Z,13.43
2017-09-26T19:52:25.806Z,12.00
2017-09-26T19:54:54.241Z,11.80
2017-09-26T19:57:21.751Z,12.60
2017-09-26T19:59:49.321Z,12.53
2017-09-26T20:02:17.254Z,13.50
2017-09-26T20:04:44.754Z,12.00
2017-09-26T20:07:12.373Z,12.70
2017-09-26T20:09:39.867Z,12.10
2017-09-26T20:12:07.354Z,12.03
2017-09-26T20:14:35.270Z,11.47
2017-09-26T20:17:02.766Z,11.53
2017-09-26T20:19:31.139Z,13.33
2017-09-26T20:21:59.037Z,12.50
2017-09-26T20:24:27.488Z,12.03
2017-09-26T20:26:55.423Z,11.27
2017-09-26T20:29:22.908Z,12.93
2017-09-26T20:31:50.796Z,12.53
2017-09-26T20:34:18.308Z,11.83
2017-09-26T20:36:45.781Z,12.40
2017-09-26T20:39:14.639Z,13.60
2017-09-26T20:41:42.145Z,10.77
2017-09-26T20:44:10.069Z,11.43
2017-09-26T20:46:37.593Z,11.97
2017-09-26T20:49:06.050Z,11.07
2017-09-26T20:51:34.869Z,11.57
2017-09-26T20:54:02.386Z,12.63
2017-09-26T20:56:30.277Z,11.20
2017-09-26T20:58:57.770Z,11.73
2017-09-26T21:01:25.286Z,12.33
2017-09-26T21:03:52.790Z,12.10
2017-09-26T21:06:20.290Z,11.30
2017-09-26T21:08:48.194Z,11.43
2017-09-26T21:11:16.650Z,12.93
2017-09-26T21:13:44.175Z,11.80
2017-09-26T21:16:11.667Z,11.57
2017-09-26T21:18:39.178Z,11.30
2017-09-26T21:21:06.654Z,11.70
2017-09-26T21:23:36.233Z,11.50
2017-09-26T21:26:04.595Z,11.20
2017-09-26T21:28:32.168Z,11.00
2017-09-26T21:30:59.771Z,11.30
2017-09-26T21:33:27.812Z,10.30
2017-09-26T21:35:55.412Z,11.53
2017-09-26T21:38:23.008Z,11.80
2017-09-26T21:40:50.629Z,11.63
2017-09-26T21:43:18.850Z,11.53
2017-09-26T21:45:46.442Z,12.70
2017-09-26T21:48:14.047Z,12.40
2017-09-26T21:50:43.568Z,11.97
2017-09-26T21:53:11.999Z,11.50
2017-09-26T21:55:40.070Z,11.60
2017-09-26T21:58:07.627Z,12.00
2017-09-26T22:00:35.610Z,12.17
2017-09-26T22:03:03.230Z,13.40
2017-09-26T22:05:30.789Z,11.70
2017-09-26T22:07:58.317Z,12.17
2017-09-26T22:10:25.880Z,11.80
2017-09-26T22:12:54.339Z,12.30
2017-09-26T22:15:21.862Z,12.63
2017-09-26T22:17:50.638Z,11.60
2017-09-26T22:20:18.546Z,12.90
2017-09-26T22:22:46.025Z,12.40
2017-09-26T22:25:13.534Z,11.90
2017-09-26T22:27:41.030Z,13.70
2017-09-26T22:30:08.537Z,12.90
2017-09-26T22:32:36.445Z,13.27
2017-09-26T22:35:03.945Z,12.87
2017-09-26T22:37:31.450Z,12.43
2017-09-26T22:39:58.966Z,13.50
2017-09-26T22:42:26.461Z,14.50
2017-09-26T22:44:53.962Z,13.40
2017-09-26T22:47:21.450Z,12.40
2017-09-26T22:49:49.354Z,11.53
2017-09-26T22:52:16.870Z,12.37
2017-09-26T22:54:44.372Z,13.50
2017-09-26T22:57:13.826Z,12.35
2017-09-26T22:59:41.343Z,12.63
2017-09-26T23:02:08.819Z,12.83
2017-09-26T23:04:36.321Z,13.10
2017-09-26T23:07:04.202Z,13.20
2017-09-26T23:09:31.717Z,12.95
2017-09-26T23:12:00.178Z,13.13
2017-09-26T23:14:27.681Z,13.40
2017-09-26T23:16:55.610Z,13.63
2017-09-26T23:19:24.015Z,12.90
2017-09-26T23:21:51.910Z,14.33
2017-09-26T23:24:19.415Z,13.03
2017-09-26T23:26:47.857Z,13.57
2017-09-26T23:29:15.361Z,13.90
2017-09-26T23:31:42.858Z,12.80
2017-09-26T23:34:10.366Z,13.63
2017-09-26T23:36:37.846Z,12.70
2017-09-26T23:39:05.407Z,14.03
2017-09-26T23:41:33.289Z,12.50
2017-09-26T23:44:00.793Z,13.20
2017-09-26T23:46:28.287Z,13.75
2017-09-26T23:48:57.107Z,12.30
2017-09-26T23:51:24.593Z,13.83
2017-09-26T23:53:52.114Z,14.40
2017-09-26T23:56:20.293Z,13.02
2017-09-26T23:58:47.802Z,14.53
